Airfield :
LOGIN :

Register | Disclaimer

   EN    FR    IT 

 










Legend :    VFR   Marginal VFR   IFR   Intensive IFR   Very Intensive IFR
Visi :
Ceiling :
>= 8 km
>= 3000ft
5 to 8 km
1000 to 3000 ft
1500m to 5 km
500 to 1000 ft
800 to 1500m
200 to 500 ft
< 800m
< 200 ft
Symbols :   Thunderstorms  Fog  Heavy snow  Heavy precipitations  Wind > 20 kt
SIGMETs :     Misc.  Thunderstorms  Icing  Turbulence  Mountain Waves  Volcanic Ashes






- Airport Elevation : 277 ft
- IATA code : JER


EGJJ - Jersey

CURRENT METAR :
  • 102320Z AUTO 28011KT 9999 FEW023/// SCT041/// 09/08 Q1012 RERA

EXPIRED METARs :
  • 102250Z AUTO 27012KT 9999 FEW015/// 09/08 Q1012 RERA
  • 102220Z 27013KT 9999 RA SCT014 BKN021 09/08 Q1012
  • 102150Z 27014KT 9999 -RA FEW008 SCT016 09/08 Q1012
  • 102120Z 28013KT 8000 RA FEW005 SCT008 BKN010 09/08 Q1012
  • 102050Z 28012KT 8000 RA FEW005 SCT017 BKN037 08/07 Q1012

TAF TAF EGJJ
Valid from the 11 at 00:00 until the 11 at 09:00 UTC


102300Z 1100/1109 27012KT 9999 FEW010 SCT030
TEMPO 1103/1106 VRB03KT
PROB40
TEMPO 1103/1109 7000 SHRA BKN015
BECMG 1107/1109 22015G25KT
ATIS : +44 1534 498 073



MET'MAP, your aeronautical weather chart ! - Copyright ORBIFLY December 2007 - Disclaimer

ORBIFLY MET'MAP TEAM :

Programming & Development : Alexandra Zaïnal
Concept & original design : Baudouin d'Aumeries
Assistance for programming : Marc-Olivier Méhu
Technical & hardware support : Manuel Goepfert

Contact : metmap@orbifly.com




SOURCES & CREDITS :

   NOAA